createdAt,value
2022-11-18T00:01:22.065Z,3.73
2022-11-18T00:03:51.739Z,3.75
2022-11-18T00:06:24.980Z,3.76
2022-11-18T00:08:54.060Z,3.81
2022-11-18T00:12:02.350Z,3.73
2022-11-18T00:14:30.655Z,3.66
2022-11-18T00:17:01.506Z,3.55
2022-11-18T00:19:34.644Z,3.59
2022-11-18T00:22:02.700Z,3.59
2022-11-18T00:24:30.905Z,3.65
2022-11-18T00:26:58.681Z,3.64
2022-11-18T00:29:29.017Z,3.63
2022-11-18T00:31:57.654Z,3.66
2022-11-18T00:34:26.892Z,3.68
2022-11-18T00:36:54.558Z,3.72
2022-11-18T00:39:23.170Z,3.58
2022-11-18T00:42:09.387Z,3.57
2022-11-18T00:44:40.655Z,3.63
2022-11-18T00:47:08.084Z,3.57
2022-11-18T00:49:35.456Z,3.72
2022-11-18T00:52:02.954Z,3.75
2022-11-18T00:54:30.286Z,3.78
2022-11-18T00:56:57.746Z,3.85
2022-11-18T00:59:25.575Z,3.89
2022-11-18T01:01:52.901Z,3.91
2022-11-18T01:04:23.304Z,3.92
2022-11-18T01:06:51.021Z,3.80
2022-11-18T01:09:18.778Z,3.81
2022-11-18T01:12:04.940Z,3.77
2022-11-18T01:14:32.599Z,3.85
2022-11-18T01:16:59.922Z,3.74
2022-11-18T01:19:27.566Z,3.71
2022-11-18T01:21:56.631Z,3.66
2022-11-18T01:24:24.173Z,3.54
2022-11-18T01:26:51.580Z,3.55
2022-11-18T01:29:19.377Z,3.58
2022-11-18T01:32:09.273Z,3.65
2022-11-18T01:34:34.271Z,3.60
2022-11-18T01:37:01.623Z,3.68
2022-11-18T01:39:29.758Z,3.70
2022-11-18T01:41:57.255Z,3.62
2022-11-18T01:44:52.687Z,3.55
2022-11-18T01:47:21.047Z,3.56
2022-11-18T01:49:48.661Z,3.60
2022-11-18T01:52:16.010Z,3.59
2022-11-18T01:54:48.474Z,3.71
2022-11-18T01:57:19.842Z,3.66
2022-11-18T01:59:50.729Z,3.57
2022-11-18T02:02:18.282Z,3.70
2022-11-18T02:04:50.252Z,3.74
2022-11-18T02:07:18.290Z,3.72
2022-11-18T02:09:45.916Z,3.67
2022-11-18T02:12:14.050Z,3.56
2022-11-18T02:14:45.858Z,3.66
2022-11-18T02:17:39.707Z,3.59
2022-11-18T02:20:42.478Z,3.55
2022-11-18T02:23:38.459Z,3.63
2022-11-18T02:26:47.051Z,3.55
2022-11-18T02:29:36.867Z,3.71
2022-11-18T02:32:12.278Z,3.72
2022-11-18T02:34:53.099Z,3.66
2022-11-18T02:37:48.108Z,3.69
2022-11-18T02:40:25.479Z,3.62
2022-11-18T02:43:00.544Z,3.59
2022-11-18T02:45:30.322Z,3.64
2022-11-18T02:48:03.120Z,3.65
2022-11-18T02:50:33.052Z,3.73
2022-11-18T02:53:03.391Z,3.66
2022-11-18T02:55:35.051Z,3.70
2022-11-18T02:58:05.254Z,3.72
2022-11-18T03:00:33.947Z,3.66
2022-11-18T03:03:27.182Z,3.67
2022-11-18T03:06:16.759Z,3.72
2022-11-18T03:09:07.958Z,3.71
2022-11-18T03:12:07.517Z,3.73
2022-11-18T03:15:04.256Z,3.74
2022-11-18T03:18:13.945Z,3.69
2022-11-18T03:20:58.782Z,3.59
2022-11-18T03:23:32.628Z,3.63
2022-11-18T03:26:10.018Z,3.69
2022-11-18T03:29:04.777Z,3.65
2022-11-18T03:31:41.508Z,3.62
2022-11-18T03:34:22.011Z,3.64
2022-11-18T03:37:00.468Z,3.56
2022-11-18T03:39:32.022Z,3.37
2022-11-18T03:42:16.686Z,3.22
2022-11-18T03:44:52.826Z,3.07
2022-11-18T03:47:27.388Z,3.03
2022-11-18T03:50:04.671Z,2.87
2022-11-18T03:52:36.320Z,2.94
2022-11-18T03:55:11.620Z,3.01
2022-11-18T03:57:50.777Z,2.96
2022-11-18T04:00:20.454Z,2.86
2022-11-18T04:02:51.014Z,2.85
2022-11-18T04:05:19.515Z,2.79
2022-11-18T04:07:57.585Z,2.72
2022-11-18T04:10:34.126Z,2.62
2022-11-18T04:13:23.246Z,2.47
2022-11-18T04:15:51.367Z,2.39
2022-11-18T04:18:19.504Z,2.37
2022-11-18T04:20:46.851Z,2.26
2022-11-18T04:23:14.271Z,2.25
2022-11-18T04:25:41.566Z,2.19
2022-11-18T04:28:09.797Z,2.14
2022-11-18T04:30:37.101Z,2.14
2022-11-18T04:33:06.035Z,2.11
2022-11-18T04:35:33.458Z,2.06
2022-11-18T04:38:01.212Z,2.08
2022-11-18T04:40:28.608Z,2.19
2022-11-18T04:42:55.887Z,2.11
2022-11-18T04:45:23.702Z,2.08
2022-11-18T04:47:50.896Z,2.10
2022-11-18T04:50:18.385Z,2.09
2022-11-18T04:52:45.872Z,2.02
2022-11-18T04:55:13.739Z,2.05
2022-11-18T04:57:41.125Z,2.01
2022-11-18T05:00:08.869Z,2.02
2022-11-18T05:02:50.888Z,2.11
2022-11-18T05:05:18.588Z,1.95
2022-11-18T05:07:46.467Z,1.94
2022-11-18T05:10:14.178Z,1.92
2022-11-18T05:12:52.596Z,1.90
2022-11-18T05:15:24.554Z,1.82
2022-11-18T05:17:52.983Z,1.82
2022-11-18T05:20:20.423Z,1.84
2022-11-18T05:22:47.765Z,1.81
2022-11-18T05:25:16.480Z,1.83
2022-11-18T05:27:44.908Z,1.78
2022-11-18T05:30:13.248Z,1.64
2022-11-18T05:32:51.239Z,1.59
2022-11-18T05:35:18.740Z,1.59
2022-11-18T05:37:46.458Z,1.60
2022-11-18T05:40:14.018Z,1.63
2022-11-18T05:42:59.863Z,1.65
2022-11-18T05:45:27.318Z,1.62
2022-11-18T05:48:01.384Z,1.68
2022-11-18T05:50:29.055Z,1.77
2022-11-18T05:52:57.277Z,1.65
2022-11-18T05:55:30.306Z,1.62
2022-11-18T05:57:58.153Z,1.57
2022-11-18T06:00:25.475Z,1.59
2022-11-18T06:02:55.080Z,1.50
2022-11-18T06:05:24.651Z,1.50
2022-11-18T06:07:55.847Z,1.42
2022-11-18T06:10:35.900Z,1.38
2022-11-18T06:13:07.360Z,1.37
2022-11-18T06:15:40.081Z,1.32
2022-11-18T06:18:36.198Z,1.29
2022-11-18T06:21:05.994Z,1.25
2022-11-18T06:23:36.756Z,1.10
2022-11-18T06:26:04.455Z,1.09
2022-11-18T06:28:32.293Z,1.07
2022-11-18T06:30:59.808Z,1.07
2022-11-18T06:33:27.071Z,1.04
2022-11-18T06:35:54.501Z,0.94
2022-11-18T06:38:25.177Z,0.97
2022-11-18T06:40:52.578Z,0.94
2022-11-18T06:43:38.939Z,0.92
2022-11-18T06:46:28.057Z,0.89
2022-11-18T06:48:55.892Z,0.86
2022-11-18T06:51:23.596Z,0.84
2022-11-18T06:53:51.623Z,0.80
2022-11-18T06:56:21.182Z,0.83
2022-11-18T06:58:53.261Z,0.77
2022-11-18T07:01:23.429Z,0.78
2022-11-18T07:03:52.588Z,0.77
2022-11-18T07:06:23.227Z,0.74
2022-11-18T07:08:51.391Z,0.67
2022-11-18T07:11:21.321Z,0.69
2022-11-18T07:13:49.220Z,0.66
2022-11-18T07:16:24.934Z,0.55
2022-11-18T07:18:54.463Z,0.56
2022-11-18T07:21:29.015Z,0.54
2022-11-18T07:23:57.520Z,0.49
2022-11-18T07:26:24.992Z,0.47
2022-11-18T07:28:54.074Z,0.46
2022-11-18T07:31:21.771Z,0.45
2022-11-18T07:33:54.739Z,0.49
2022-11-18T07:36:25.543Z,0.46
2022-11-18T07:38:53.384Z,0.44
2022-11-18T07:41:23.470Z,0.46
2022-11-18T07:43:56.164Z,0.46
2022-11-18T07:46:44.773Z,0.46
2022-11-18T07:49:12.487Z,0.34
2022-11-18T07:51:41.080Z,0.38
2022-11-18T07:54:11.093Z,0.34
2022-11-18T07:56:38.578Z,0.30
2022-11-18T07:59:07.945Z,0.34
2022-11-18T08:01:35.937Z,0.38
2022-11-18T08:04:14.085Z,0.28
2022-11-18T08:06:41.538Z,0.29
2022-11-18T08:09:09.668Z,0.29
2022-11-18T08:11:37.283Z,0.23
2022-11-18T08:14:05.122Z,0.22
2022-11-18T08:16:32.646Z,0.20
2022-11-18T08:19:01.033Z,0.19
2022-11-18T08:21:28.629Z,0.22
2022-11-18T08:23:57.943Z,0.21
2022-11-18T08:26:26.644Z,0.23
2022-11-18T08:28:54.626Z,0.26
2022-11-18T08:31:24.936Z,0.29
2022-11-18T08:34:07.577Z,0.27
2022-11-18T08:36:37.738Z,0.35
2022-11-18T08:39:08.186Z,0.30
2022-11-18T08:41:37.066Z,0.26
2022-11-18T08:44:05.693Z,0.23
2022-11-18T08:46:36.183Z,0.13
2022-11-18T08:49:03.704Z,0.06
2022-11-18T08:51:31.341Z,0.07
2022-11-18T08:53:58.958Z,0.04
2022-11-18T08:56:26.472Z,-0.02
2022-11-18T08:58:54.505Z,-0.02
2022-11-18T09:01:22.666Z,-0.04
2022-11-18T09:03:50.315Z,-0.03
2022-11-18T09:06:29.507Z,-0.16
2022-11-18T09:09:02.070Z,-0.26
2022-11-18T09:11:34.552Z,-0.26
2022-11-18T09:16:50.245Z,-0.31
2022-11-18T09:22:11.240Z,-0.46
2022-11-18T09:24:39.728Z,-0.52
2022-11-18T09:27:15.234Z,-0.56
2022-11-18T09:29:46.532Z,-0.53
2022-11-18T09:32:14.074Z,-0.51
2022-11-18T09:34:43.221Z,-0.52
2022-11-18T09:37:10.765Z,-0.62
2022-11-18T09:39:38.513Z,-0.70
2022-11-18T09:42:17.932Z,-0.73
2022-11-18T09:45:44.614Z,-0.72
2022-11-18T09:48:48.376Z,-0.89
2022-11-18T09:51:19.531Z,-1.05
2022-11-18T09:53:47.497Z,-1.17
2022-11-18T09:56:16.298Z,-1.09
2022-11-18T09:58:45.048Z,-1.11
2022-11-18T10:01:17.482Z,-1.20
2022-11-18T10:03:44.944Z,-1.15
2022-11-18T10:06:24.958Z,-1.28
2022-11-18T10:08:58.632Z,-1.33
2022-11-18T10:11:40.132Z,-1.31
2022-11-18T10:14:27.333Z,-1.33
2022-11-18T10:17:04.346Z,-1.34
2022-11-18T10:19:40.318Z,-1.35
2022-11-18T10:25:15.639Z,-1.38
2022-11-18T10:27:45.745Z,-1.35
2022-11-18T10:30:17.080Z,-1.30
2022-11-18T10:33:22.041Z,-1.38
2022-11-18T10:35:50.129Z,-1.41
2022-11-18T10:38:19.359Z,-1.32
2022-11-18T10:40:52.802Z,-1.34
2022-11-18T10:43:43.708Z,-1.35
2022-11-18T10:46:30.268Z,-1.37
2022-11-18T10:49:10.052Z,-1.40
2022-11-18T10:51:42.082Z,-1.48
2022-11-18T10:54:14.319Z,-1.50
2022-11-18T10:56:57.816Z,-1.42
2022-11-18T10:59:33.952Z,-1.51
2022-11-18T11:02:15.732Z,-1.41
2022-11-18T11:04:44.803Z,-1.35
2022-11-18T11:07:19.361Z,-1.38
2022-11-18T11:10:00.390Z,-1.43
2022-11-18T11:12:31.215Z,-1.45
2022-11-18T11:15:11.596Z,-1.50
2022-11-18T11:18:16.567Z,-1.37
2022-11-18T11:20:44.477Z,-1.41
2022-11-18T11:23:22.061Z,-1.30
2022-11-18T11:29:17.096Z,-1.42
2022-11-18T11:31:47.420Z,-1.44
2022-11-18T11:34:26.884Z,-1.43
2022-11-18T11:37:09.571Z,-1.54
2022-11-18T11:39:37.080Z,-1.54
2022-11-18T11:42:43.723Z,-1.52
2022-11-18T11:45:29.755Z,-1.51
2022-11-18T11:48:15.840Z,-1.51
2022-11-18T11:51:02.043Z,-1.65
2022-11-18T11:54:00.468Z,-1.59
2022-11-18T11:56:49.876Z,-1.53
2022-11-18T11:59:20.404Z,-1.52
2022-11-18T12:02:13.023Z,-1.51
2022-11-18T12:04:58.625Z,-1.48
2022-11-18T12:07:30.120Z,-1.60
2022-11-18T12:10:22.209Z,-1.59
2022-11-18T12:12:58.994Z,-1.60
2022-11-18T12:15:53.948Z,-1.69
2022-11-18T12:18:24.669Z,-1.62
2022-11-18T12:20:54.144Z,-1.56
2022-11-18T12:23:29.924Z,-1.67
2022-11-18T12:26:04.720Z,-1.71
2022-11-18T12:28:41.607Z,-1.78
2022-11-18T12:31:18.245Z,-1.74
2022-11-18T12:33:46.554Z,-1.76
2022-11-18T12:36:33.713Z,-1.76
2022-11-18T12:39:25.965Z,-1.83
2022-11-18T12:42:12.775Z,-1.96
2022-11-18T12:44:41.810Z,-1.90
2022-11-18T12:47:14.292Z,-2.02
2022-11-18T12:49:44.776Z,-2.15
2022-11-18T12:52:41.057Z,-2.21
2022-11-18T12:55:25.039Z,-2.19
2022-11-18T12:57:52.720Z,-2.16
2022-11-18T13:00:32.728Z,-2.22
2022-11-18T13:03:02.576Z,-2.17
2022-11-18T13:05:36.166Z,-2.22
2022-11-18T13:08:13.375Z,-2.18
2022-11-18T13:10:46.087Z,-2.11
2022-11-18T13:13:32.504Z,-2.17
2022-11-18T13:16:43.820Z,-2.29
2022-11-18T13:19:25.362Z,-2.41
2022-11-18T13:22:17.188Z,-2.42
2022-11-18T13:24:52.583Z,-2.43
2022-11-18T13:27:44.717Z,-2.48
2022-11-18T13:30:14.269Z,-2.47
2022-11-18T13:32:47.363Z,-2.50
2022-11-18T13:35:17.792Z,-2.52
2022-11-18T13:37:55.282Z,-2.47
2022-11-18T13:41:03.396Z,-2.49
2022-11-18T13:43:35.378Z,-2.44
2022-11-18T13:46:08.951Z,-2.43
2022-11-18T13:48:44.417Z,-2.60
2022-11-18T13:51:12.742Z,-2.60
2022-11-18T13:53:41.278Z,-2.60
2022-11-18T13:56:20.540Z,-2.64
2022-11-18T14:01:40.549Z,-2.81
2022-11-18T14:04:19.391Z,-2.86
2022-11-18T14:06:47.051Z,-2.85
2022-11-18T14:09:15.060Z,-2.90
2022-11-18T14:11:57.812Z,-2.85
2022-11-18T14:14:45.088Z,-2.92
2022-11-18T14:17:22.890Z,-2.90
2022-11-18T14:19:53.110Z,-2.90
2022-11-18T14:22:22.230Z,-2.87
2022-11-18T14:25:23.003Z,-2.91
2022-11-18T14:27:55.772Z,-2.79
2022-11-18T14:30:36.577Z,-2.79
2022-11-18T14:33:20.954Z,-2.88
2022-11-18T14:36:16.565Z,-2.91
2022-11-18T14:39:24.966Z,-2.78
2022-11-18T14:41:50.149Z,-2.86
2022-11-18T14:44:19.671Z,-2.78
2022-11-18T14:46:53.778Z,-2.83
2022-11-18T14:49:23.854Z,-2.79
2022-11-18T14:51:56.849Z,-2.83
2022-11-18T14:54:27.663Z,-2.83
2022-11-18T14:56:58.542Z,-2.87
2022-11-18T14:59:26.232Z,-2.91
2022-11-18T15:01:53.660Z,-2.80
2022-11-18T15:04:35.872Z,-2.81
2022-11-18T15:07:03.252Z,-2.75
2022-11-18T15:09:31.291Z,-2.77
2022-11-18T15:11:58.953Z,-2.80
2022-11-18T15:14:26.466Z,-2.83
2022-11-18T15:16:59.614Z,-2.81
2022-11-18T15:19:32.216Z,-2.85
2022-11-18T15:22:01.223Z,-2.79
2022-11-18T15:24:28.513Z,-2.82
2022-11-18T15:27:06.336Z,-2.75
2022-11-18T15:29:33.991Z,-2.73
2022-11-18T15:32:05.152Z,-2.67
2022-11-18T15:34:34.198Z,-2.64
2022-11-18T15:37:02.074Z,-2.80
2022-11-18T15:39:31.244Z,-2.75
2022-11-18T15:41:58.891Z,-2.75
2022-11-18T15:44:26.618Z,-2.68
2022-11-18T15:46:54.116Z,-2.65
2022-11-18T15:49:22.117Z,-2.65
2022-11-18T15:51:49.692Z,-2.75
2022-11-18T15:54:19.002Z,-2.67
2022-11-18T15:56:46.550Z,-2.76
2022-11-18T15:59:15.363Z,-2.65
2022-11-18T16:01:54.930Z,-2.57
2022-11-18T16:04:23.164Z,-2.63
2022-11-18T16:06:50.610Z,-2.73
2022-11-18T16:09:18.472Z,-2.70
2022-11-18T16:12:12.299Z,-2.74
2022-11-18T16:14:40.285Z,-2.70
2022-11-18T16:17:07.743Z,-2.71
2022-11-18T16:19:35.205Z,-2.75
2022-11-18T16:22:02.689Z,-2.66
2022-11-18T16:24:30.205Z,-2.67
2022-11-18T16:26:57.813Z,-2.68
2022-11-18T16:29:25.498Z,-2.71
2022-11-18T16:31:54.380Z,-2.75
2022-11-18T16:34:35.730Z,-2.81
2022-11-18T16:37:05.057Z,-2.87
2022-11-18T16:39:32.539Z,-2.81
2022-11-18T16:42:08.283Z,-2.85
2022-11-18T16:44:37.364Z,-2.87
2022-11-18T16:47:12.477Z,-2.88
2022-11-18T16:49:44.165Z,-2.81
2022-11-18T16:52:11.813Z,-2.79
2022-11-18T16:54:44.743Z,-2.79
2022-11-18T16:57:29.475Z,-2.79
2022-11-18T17:00:19.988Z,-2.87
2022-11-18T17:02:47.382Z,-2.82
2022-11-18T17:05:14.773Z,-2.85
2022-11-18T17:07:42.401Z,-2.82
2022-11-18T17:10:19.781Z,-2.79
2022-11-18T17:12:48.236Z,-2.85
2022-11-18T17:15:16.469Z,-2.95
2022-11-18T17:17:44.013Z,-3.01
2022-11-18T17:20:12.240Z,-3.01
2022-11-18T17:22:40.411Z,-3.12
2022-11-18T17:25:08.108Z,-3.16
2022-11-18T17:27:35.832Z,-3.16
2022-11-18T17:30:05.801Z,-3.16
2022-11-18T17:32:36.156Z,-3.20
2022-11-18T17:35:03.734Z,-3.16
2022-11-18T17:37:31.395Z,-3.28
2022-11-18T17:40:02.128Z,-3.28
2022-11-18T17:42:34.250Z,-3.32
2022-11-18T17:45:01.701Z,-3.34
2022-11-18T17:47:41.662Z,-3.24
2022-11-18T17:50:10.659Z,-3.26
2022-11-18T17:52:38.241Z,-3.16
2022-11-18T17:55:12.174Z,-3.22
2022-11-18T17:57:39.655Z,-3.34
2022-11-18T18:00:08.884Z,-3.32
2022-11-18T18:02:37.202Z,-3.34
2022-11-18T18:05:05.114Z,-3.33
2022-11-18T18:07:32.751Z,-3.32
2022-11-18T18:10:03.607Z,-3.22
2022-11-18T18:12:50.395Z,-3.27
2022-11-18T18:15:24.138Z,-3.30
2022-11-18T18:17:52.832Z,-3.30
2022-11-18T18:20:20.432Z,-3.30
2022-11-18T18:22:47.861Z,-3.27
2022-11-18T18:25:15.524Z,-3.23
2022-11-18T18:27:42.851Z,-3.32
2022-11-18T18:30:11.153Z,-3.24
2022-11-18T18:32:38.599Z,-3.32
2022-11-18T18:35:11.499Z,-3.25
2022-11-18T18:37:59.268Z,-3.35
2022-11-18T18:40:26.676Z,-3.30
2022-11-18T18:42:54.174Z,-3.25
2022-11-18T18:45:40.270Z,-3.32
2022-11-18T18:48:07.687Z,-3.36
2022-11-18T18:50:35.131Z,-3.37
2022-11-18T18:53:02.586Z,-3.38
2022-11-18T18:55:30.367Z,-3.34
2022-11-18T18:57:57.787Z,-3.38
2022-11-18T19:00:25.083Z,-3.39
2022-11-18T19:02:56.157Z,-3.30
2022-11-18T19:05:45.886Z,-3.35
2022-11-18T19:08:17.334Z,-3.38
2022-11-18T19:10:46.625Z,-3.40
2022-11-18T19:13:14.006Z,-3.49
2022-11-18T19:15:44.775Z,-3.56
2022-11-18T19:18:12.336Z,-3.59
2022-11-18T19:20:50.974Z,-3.66
2022-11-18T19:23:26.489Z,-3.65
2022-11-18T19:26:10.169Z,-3.65
2022-11-18T19:28:39.923Z,-3.72
2022-11-18T19:31:07.959Z,-3.68
2022-11-18T19:33:35.337Z,-3.72
2022-11-18T19:36:09.080Z,-3.80
2022-11-18T19:38:37.685Z,-3.75
2022-11-18T19:41:10.530Z,-3.74
2022-11-18T19:43:38.698Z,-3.61
2022-11-18T19:46:07.291Z,-3.59
2022-11-18T19:48:35.495Z,-3.62
2022-11-18T19:51:14.580Z,-3.65
2022-11-18T19:53:42.390Z,-3.62
2022-11-18T20:00:18.040Z,-3.68
2022-11-18T20:02:47.349Z,-3.67
2022-11-18T20:05:39.581Z,-3.64
2022-11-18T20:08:13.794Z,-3.66
2022-11-18T20:14:05.271Z,-3.69
2022-11-18T20:16:36.479Z,-3.64
2022-11-18T20:19:10.785Z,-3.61
2022-11-18T20:21:39.336Z,-3.63
2022-11-18T20:24:08.775Z,-3.64
2022-11-18T20:26:46.166Z,-3.67
2022-11-18T20:29:13.642Z,-3.57
2022-11-18T20:31:42.217Z,-3.64
2022-11-18T20:34:13.286Z,-3.66
2022-11-18T20:36:41.607Z,-3.63
2022-11-18T20:43:50.635Z,-3.58
2022-11-18T20:46:21.320Z,-3.61
2022-11-18T20:48:50.166Z,-3.51
2022-11-18T20:51:23.658Z,-3.54
2022-11-18T20:53:56.026Z,-3.59
2022-11-18T20:56:26.242Z,-3.50
2022-11-18T20:58:54.153Z,-3.61
2022-11-18T21:01:25.093Z,-3.66
2022-11-18T21:04:05.254Z,-3.63
2022-11-18T21:06:33.369Z,-3.65
2022-11-18T21:09:03.279Z,-3.54
2022-11-18T21:11:34.847Z,-3.66
2022-11-18T21:14:24.787Z,-3.66
2022-11-18T21:16:55.717Z,-3.67
2022-11-18T21:19:24.599Z,-3.61
2022-11-18T21:21:53.875Z,-3.62
2022-11-18T21:24:49.071Z,-3.63
2022-11-18T21:27:17.889Z,-3.75
2022-11-18T21:29:49.968Z,-3.76
2022-11-18T21:32:17.380Z,-3.73
2022-11-18T21:34:44.973Z,-3.84
2022-11-18T21:37:13.435Z,-3.92
2022-11-18T21:39:40.929Z,-3.89
2022-11-18T21:42:08.584Z,-3.95
2022-11-18T21:44:36.100Z,-4.00
2022-11-18T21:47:04.552Z,-3.96
2022-11-18T21:49:32.407Z,-3.97
2022-11-18T21:52:00.346Z,-3.91
2022-11-18T21:54:27.702Z,-3.95
2022-11-18T21:56:55.214Z,-3.96
2022-11-18T21:59:23.739Z,-3.99
2022-11-18T22:01:52.152Z,-4.09
2022-11-18T22:04:38.793Z,-4.17
2022-11-18T22:07:06.395Z,-4.20
2022-11-18T22:09:37.002Z,-4.23
2022-11-18T22:12:06.888Z,-4.26
2022-11-18T22:14:35.081Z,-4.30
2022-11-18T22:17:02.975Z,-4.37
2022-11-18T22:19:30.916Z,-4.45
2022-11-18T22:21:58.202Z,-4.45
2022-11-18T22:24:25.835Z,-4.51
2022-11-18T22:26:53.223Z,-4.42
2022-11-18T22:29:20.930Z,-4.39
2022-11-18T22:31:48.515Z,-4.37
2022-11-18T22:34:15.916Z,-4.45
2022-11-18T22:36:43.253Z,-4.45
2022-11-18T22:39:10.792Z,-4.52
2022-11-18T22:41:57.616Z,-4.48
2022-11-18T22:44:25.026Z,-4.43
2022-11-18T22:46:53.738Z,-4.37
2022-11-18T22:49:21.767Z,-4.40
2022-11-18T22:51:49.281Z,-4.37
2022-11-18T22:54:42.107Z,-4.34
2022-11-18T22:57:09.616Z,-4.44
2022-11-18T22:59:38.324Z,-4.49
2022-11-18T23:02:06.029Z,-4.50
2022-11-18T23:04:33.776Z,-4.49
2022-11-18T23:07:02.342Z,-4.48
2022-11-18T23:09:29.765Z,-4.43
2022-11-18T23:12:15.608Z,-4.34
2022-11-18T23:14:46.224Z,-4.45
2022-11-18T23:17:13.832Z,-4.41
2022-11-18T23:19:43.966Z,-4.47
2022-11-18T23:22:12.137Z,-4.52
2022-11-18T23:24:39.904Z,-4.61
2022-11-18T23:27:07.461Z,-4.60
2022-11-18T23:29:36.257Z,-4.65
2022-11-18T23:32:03.972Z,-4.67
2022-11-18T23:34:31.409Z,-4.66
2022-11-18T23:36:58.804Z,-4.69
2022-11-18T23:39:26.285Z,-4.66
2022-11-18T23:41:53.670Z,-4.61
2022-11-18T23:44:41.053Z,-4.52
2022-11-18T23:47:08.424Z,-4.54
2022-11-18T23:49:35.865Z,-4.53
2022-11-18T23:52:03.310Z,-4.48
2022-11-18T23:54:30.674Z,-4.59
2022-11-18T23:56:58.344Z,-4.57
2022-11-18T23:59:25.956Z,-4.68
